sensor_id;sensor_type;location;lat;lon;timestamp;temperature;humidity
63202;DHT22;49296;48.188;11.566;2023-06-14T00:00:00;19.64;41.85
63202;DHT22;49296;48.188;11.566;2023-06-14T00:02:29;19.61;42.07
63202;DHT22;49296;48.188;11.566;2023-06-14T00:04:56;19.58;42.03
63202;DHT22;49296;48.188;11.566;2023-06-14T00:07:33;19.56;42.46
63202;DHT22;49296;48.188;11.566;2023-06-14T00:10:00;19.45;42.63
63202;DHT22;49296;48.188;11.566;2023-06-14T00:12:27;19.45;42.63
63202;DHT22;49296;48.188;11.566;2023-06-14T00:14:55;19.37;42.83
63202;DHT22;49296;48.188;11.566;2023-06-14T00:17:22;19.37;42.77
63202;DHT22;49296;48.188;11.566;2023-06-14T00:19:49;19.27;43.02
63202;DHT22;49296;48.188;11.566;2023-06-14T00:22:15;19.29;43.01
63202;DHT22;49296;48.188;11.566;2023-06-14T00:24:42;19.26;43.13
63202;DHT22;49296;48.188;11.566;2023-06-14T00:27:09;19.25;43.38
63202;DHT22;49296;48.188;11.566;2023-06-14T00:29:35;19.22;43.25
63202;DHT22;49296;48.188;11.566;2023-06-14T00:32:04;19.15;43.22
63202;DHT22;49296;48.188;11.566;2023-06-14T00:34:31;19.12;43.24
63202;DHT22;49296;48.188;11.566;2023-06-14T00:36:58;19.09;43.08
63202;DHT22;49296;48.188;11.566;2023-06-14T00:39:25;19.09;43.38
63202;DHT22;49296;48.188;11.566;2023-06-14T00:41:52;19.08;43.31
63202;DHT22;49296;48.188;11.566;2023-06-14T00:44:19;19.02;43.26
63202;DHT22;49296;48.188;11.566;2023-06-14T00:46:47;18.99;43.29
63202;DHT22;49296;48.188;11.566;2023-06-14T00:49:16;18.99;43.31
63202;DHT22;49296;48.188;11.566;2023-06-14T00:51:44;18.98;43.41
63202;DHT22;49296;48.188;11.566;2023-06-14T00:54:11;18.92;43.45
63202;DHT22;49296;48.188;11.566;2023-06-14T00:56:39;18.89;43.69
63202;DHT22;49296;48.188;11.566;2023-06-14T00:59:06;18.85;43.71
63202;DHT22;49296;48.188;11.566;2023-06-14T01:01:33;18.87;43.74
63202;DHT22;49296;48.188;11.566;2023-06-14T01:04:00;18.80;43.92
63202;DHT22;49296;48.188;11.566;2023-06-14T01:06:33;18.80;44.12
63202;DHT22;49296;48.188;11.566;2023-06-14T01:09:07;18.78;44.29
63202;DHT22;49296;48.188;11.566;2023-06-14T01:11:41;18.77;44.52
63202;DHT22;49296;48.188;11.566;2023-06-14T01:14:12;18.72;44.65
63202;DHT22;49296;48.188;11.566;2023-06-14T01:16:39;18.64;44.79
63202;DHT22;49296;48.188;11.566;2023-06-14T01:19:09;18.54;45.31
63202;DHT22;49296;48.188;11.566;2023-06-14T01:21:40;18.52;45.34
63202;DHT22;49296;48.188;11.566;2023-06-14T01:24:10;18.49;45.51
63202;DHT22;49296;48.188;11.566;2023-06-14T01:26:38;18.49;45.77
63202;DHT22;49296;48.188;11.566;2023-06-14T01:29:11;18.42;45.82
63202;DHT22;49296;48.188;11.566;2023-06-14T01:31:42;18.36;45.99
63202;DHT22;49296;48.188;11.566;2023-06-14T01:34:09;18.28;46.12
63202;DHT22;49296;48.188;11.566;2023-06-14T01:36:37;18.22;46.23
63202;DHT22;49296;48.188;11.566;2023-06-14T01:39:06;18.21;46.21
63202;DHT22;49296;48.188;11.566;2023-06-14T01:41:35;18.18;46.09
63202;DHT22;49296;48.188;11.566;2023-06-14T01:44:03;18.21;45.87
63202;DHT22;49296;48.188;11.566;2023-06-14T01:46:31;18.22;45.80
63202;DHT22;49296;48.188;11.566;2023-06-14T01:48:58;18.19;45.62
63202;DHT22;49296;48.188;11.566;2023-06-14T01:51:25;18.18;45.66
63202;DHT22;49296;48.188;11.566;2023-06-14T01:53:52;18.08;45.81
63202;DHT22;49296;48.188;11.566;2023-06-14T01:56:19;18.04;46.09
63202;DHT22;49296;48.188;11.566;2023-06-14T01:58:48;18.01;46.01
63202;DHT22;49296;48.188;11.566;2023-06-14T02:01:15;17.98;46.14
63202;DHT22;49296;48.188;11.566;2023-06-14T02:03:42;17.98;46.18
63202;DHT22;49296;48.188;11.566;2023-06-14T02:06:10;18.04;46.26
63202;DHT22;49296;48.188;11.566;2023-06-14T02:08:38;18.01;46.22
63202;DHT22;49296;48.188;11.566;2023-06-14T02:11:04;18.02;46.24
63202;DHT22;49296;48.188;11.566;2023-06-14T02:13:31;18.01;46.19
63202;DHT22;49296;48.188;11.566;2023-06-14T02:16:01;18.05;46.15
63202;DHT22;49296;48.188;11.566;2023-06-14T02:18:28;18.04;46.18
63202;DHT22;49296;48.188;11.566;2023-06-14T02:20:55;17.97;46.29
63202;DHT22;49296;48.188;11.566;2023-06-14T02:23:22;17.90;46.43
63202;DHT22;49296;48.188;11.566;2023-06-14T02:25:49;17.95;46.41
63202;DHT22;49296;48.188;11.566;2023-06-14T02:28:16;17.95;46.52
63202;DHT22;49296;48.188;11.566;2023-06-14T02:30:43;17.87;46.88
63202;DHT22;49296;48.188;11.566;2023-06-14T02:33:11;17.83;46.83
63202;DHT22;49296;48.188;11.566;2023-06-14T02:35:38;17.73;47.01
63202;DHT22;49296;48.188;11.566;2023-06-14T02:38:05;17.71;46.95
63202;DHT22;49296;48.188;11.566;2023-06-14T02:40:32;17.74;46.89
63202;DHT22;49296;48.188;11.566;2023-06-14T02:42:59;17.74;46.76
63202;DHT22;49296;48.188;11.566;2023-06-14T02:45:27;17.71;47.03
63202;DHT22;49296;48.188;11.566;2023-06-14T02:47:54;17.66;47.36
63202;DHT22;49296;48.188;11.566;2023-06-14T02:50:22;17.64;47.38
63202;DHT22;49296;48.188;11.566;2023-06-14T02:52:50;17.63;47.45
63202;DHT22;49296;48.188;11.566;2023-06-14T02:55:18;17.49;47.83
63202;DHT22;49296;48.188;11.566;2023-06-14T02:57:44;17.45;48.10
63202;DHT22;49296;48.188;11.566;2023-06-14T03:00:13;17.28;48.44
63202;DHT22;49296;48.188;11.566;2023-06-14T03:02:41;17.23;48.49
63202;DHT22;49296;48.188;11.566;2023-06-14T03:05:08;17.25;48.62
63202;DHT22;49296;48.188;11.566;2023-06-14T03:07:37;17.29;48.70
63202;DHT22;49296;48.188;11.566;2023-06-14T03:10:07;17.25;48.82
63202;DHT22;49296;48.188;11.566;2023-06-14T03:12:35;17.23;48.54
63202;DHT22;49296;48.188;11.566;2023-06-14T03:15:02;17.21;48.61
63202;DHT22;49296;48.188;11.566;2023-06-14T03:17:30;17.16;48.95
63202;DHT22;49296;48.188;11.566;2023-06-14T03:19:59;16.97;49.38
63202;DHT22;49296;48.188;11.566;2023-06-14T03:22:26;16.89;49.71
63202;DHT22;49296;48.188;11.566;2023-06-14T03:24:55;16.89;49.66
63202;DHT22;49296;48.188;11.566;2023-06-14T03:27:22;16.91;49.87
63202;DHT22;49296;48.188;11.566;2023-06-14T03:29:48;16.91;50.00
63202;DHT22;49296;48.188;11.566;2023-06-14T03:32:15;16.88;50.18
63202;DHT22;49296;48.188;11.566;2023-06-14T03:34:42;16.89;50.19
63202;DHT22;49296;48.188;11.566;2023-06-14T03:37:10;16.89;50.23
63202;DHT22;49296;48.188;11.566;2023-06-14T03:39:37;16.83;50.18
63202;DHT22;49296;48.188;11.566;2023-06-14T03:42:12;16.81;50.17
63202;DHT22;49296;48.188;11.566;2023-06-14T03:44:39;16.84;50.19
63202;DHT22;49296;48.188;11.566;2023-06-14T03:47:06;16.83;50.25
63202;DHT22;49296;48.188;11.566;2023-06-14T03:49:33;16.81;50.22
63202;DHT22;49296;48.188;11.566;2023-06-14T03:52:00;16.77;50.12
63202;DHT22;49296;48.188;11.566;2023-06-14T03:54:27;16.76;50.34
63202;DHT22;49296;48.188;11.566;2023-06-14T03:56:54;16.77;50.32
63202;DHT22;49296;48.188;11.566;2023-06-14T03:59:23;16.78;50.38
63202;DHT22;49296;48.188;11.566;2023-06-14T04:01:51;16.85;50.28
63202;DHT22;49296;48.188;11.566;2023-06-14T04:04:18;16.85;50.13
63202;DHT22;49296;48.188;11.566;2023-06-14T04:06:46;16.76;50.25
63202;DHT22;49296;48.188;11.566;2023-06-14T04:09:13;16.71;50.65
63202;DHT22;49296;48.188;11.566;2023-06-14T04:11:40;16.71;50.69
63202;DHT22;49296;48.188;11.566;2023-06-14T04:14:07;16.66;50.63
63202;DHT22;49296;48.188;11.566;2023-06-14T04:16:35;16.63;50.85
63202;DHT22;49296;48.188;11.566;2023-06-14T04:19:02;16.59;50.84
63202;DHT22;49296;48.188;11.566;2023-06-14T04:21:29;16.50;51.02
63202;DHT22;49296;48.188;11.566;2023-06-14T04:23:55;16.50;51.01
63202;DHT22;49296;48.188;11.566;2023-06-14T04:26:22;16.61;51.15
63202;DHT22;49296;48.188;11.566;2023-06-14T04:28:55;16.69;51.14
63202;DHT22;49296;48.188;11.566;2023-06-14T04:31:22;16.78;50.95
63202;DHT22;49296;48.188;11.566;2023-06-14T04:33:51;16.83;50.98
63202;DHT22;49296;48.188;11.566;2023-06-14T04:36:19;16.84;50.95
63202;DHT22;49296;48.188;11.566;2023-06-14T04:38:46;16.88;50.39
63202;DHT22;49296;48.188;11.566;2023-06-14T04:41:14;16.87;49.41
63202;DHT22;49296;48.188;11.566;2023-06-14T04:43:41;17.00;48.82
63202;DHT22;49296;48.188;11.566;2023-06-14T04:46:08;17.04;48.71
63202;DHT22;49296;48.188;11.566;2023-06-14T04:48:37;17.08;49.22
63202;DHT22;49296;48.188;11.566;2023-06-14T04:51:07;17.11;49.26
63202;DHT22;49296;48.188;11.566;2023-06-14T04:53:35;17.15;48.68
63202;DHT22;49296;48.188;11.566;2023-06-14T04:56:02;17.22;48.34
63202;DHT22;49296;48.188;11.566;2023-06-14T04:58:29;17.26;48.22
63202;DHT22;49296;48.188;11.566;2023-06-14T05:00:57;17.30;48.31
63202;DHT22;49296;48.188;11.566;2023-06-14T05:03:24;17.33;48.14
63202;DHT22;49296;48.188;11.566;2023-06-14T05:05:52;17.38;48.00
63202;DHT22;49296;48.188;11.566;2023-06-14T05:08:20;17.43;47.99
63202;DHT22;49296;48.188;11.566;2023-06-14T05:10:49;17.46;48.23
63202;DHT22;49296;48.188;11.566;2023-06-14T05:13:15;17.54;48.03
63202;DHT22;49296;48.188;11.566;2023-06-14T05:15:42;17.36;48.15
63202;DHT22;49296;48.188;11.566;2023-06-14T05:18:09;17.45;47.71
63202;DHT22;49296;48.188;11.566;2023-06-14T05:20:36;17.38;48.14
63202;DHT22;49296;48.188;11.566;2023-06-14T05:23:03;17.47;47.94
63202;DHT22;49296;48.188;11.566;2023-06-14T05:25:31;17.59;47.65
63202;DHT22;49296;48.188;11.566;2023-06-14T05:27:58;17.47;48.07
63202;DHT22;49296;48.188;11.566;2023-06-14T05:30:25;17.62;48.08
63202;DHT22;49296;48.188;11.566;2023-06-14T05:32:55;17.50;48.27
63202;DHT22;49296;48.188;11.566;2023-06-14T05:35:22;17.45;47.97
63202;DHT22;49296;48.188;11.566;2023-06-14T05:37:49;17.56;47.77
63202;DHT22;49296;48.188;11.566;2023-06-14T05:40:16;17.47;47.91
63202;DHT22;49296;48.188;11.566;2023-06-14T05:42:45;17.57;48.35
63202;DHT22;49296;48.188;11.566;2023-06-14T05:45:12;17.67;48.51
63202;DHT22;49296;48.188;11.566;2023-06-14T05:47:40;17.83;48.47
63202;DHT22;49296;48.188;11.566;2023-06-14T05:50:08;17.80;48.55
63202;DHT22;49296;48.188;11.566;2023-06-14T05:52:35;17.66;48.65
63202;DHT22;49296;48.188;11.566;2023-06-14T05:55:02;17.71;48.73
63202;DHT22;49296;48.188;11.566;2023-06-14T05:57:29;17.75;48.98
63202;DHT22;49296;48.188;11.566;2023-06-14T05:59:57;17.81;48.74
63202;DHT22;49296;48.188;11.566;2023-06-14T06:02:24;17.74;49.04
63202;DHT22;49296;48.188;11.566;2023-06-14T06:04:51;17.73;48.36
63202;DHT22;49296;48.188;11.566;2023-06-14T06:07:18;17.83;48.19
63202;DHT22;49296;48.188;11.566;2023-06-14T06:09:45;17.97;48.20
63202;DHT22;49296;48.188;11.566;2023-06-14T06:12:11;18.02;48.28
63202;DHT22;49296;48.188;11.566;2023-06-14T06:14:38;18.01;48.31
63202;DHT22;49296;48.188;11.566;2023-06-14T06:17:06;18.13;48.08
63202;DHT22;49296;48.188;11.566;2023-06-14T06:19:33;18.15;48.04
63202;DHT22;49296;48.188;11.566;2023-06-14T06:22:00;18.08;48.09
63202;DHT22;49296;48.188;11.566;2023-06-14T06:24:27;18.11;47.96
63202;DHT22;49296;48.188;11.566;2023-06-14T06:26:54;18.21;48.08
63202;DHT22;49296;48.188;11.566;2023-06-14T06:29:20;18.32;48.00
63202;DHT22;49296;48.188;11.566;2023-06-14T06:31:47;18.25;48.51
63202;DHT22;49296;48.188;11.566;2023-06-14T06:34:15;18.29;48.23
63202;DHT22;49296;48.188;11.566;2023-06-14T06:36:42;18.36;48.40
63202;DHT22;49296;48.188;11.566;2023-06-14T06:39:08;18.46;48.51
63202;DHT22;49296;48.188;11.566;2023-06-14T06:41:37;18.52;48.55
63202;DHT22;49296;48.188;11.566;2023-06-14T06:44:05;18.57;48.71
63202;DHT22;49296;48.188;11.566;2023-06-14T06:46:31;18.53;49.02
63202;DHT22;49296;48.188;11.566;2023-06-14T06:48:58;18.52;48.92
63202;DHT22;49296;48.188;11.566;2023-06-14T06:51:26;18.63;48.95
63202;DHT22;49296;48.188;11.566;2023-06-14T06:53:53;18.68;48.84
63202;DHT22;49296;48.188;11.566;2023-06-14T06:56:20;18.63;48.56
63202;DHT22;49296;48.188;11.566;2023-06-14T06:58:48;18.63;48.65
63202;DHT22;49296;48.188;11.566;2023-06-14T07:01:15;18.71;48.60
63202;DHT22;49296;48.188;11.566;2023-06-14T07:03:42;18.83;48.78
63202;DHT22;49296;48.188;11.566;2023-06-14T07:06:09;18.88;48.46
63202;DHT22;49296;48.188;11.566;2023-06-14T07:08:37;18.80;48.43
63202;DHT22;49296;48.188;11.566;2023-06-14T07:11:04;18.88;48.46
63202;DHT22;49296;48.188;11.566;2023-06-14T07:13:31;18.91;48.28
63202;DHT22;49296;48.188;11.566;2023-06-14T07:15:59;18.94;48.25
63202;DHT22;49296;48.188;11.566;2023-06-14T07:18:26;18.97;48.49
63202;DHT22;49296;48.188;11.566;2023-06-14T07:20:53;19.05;48.42
63202;DHT22;49296;48.188;11.566;2023-06-14T07:23:20;19.01;48.10
63202;DHT22;49296;48.188;11.566;2023-06-14T07:25:48;18.98;48.38
63202;DHT22;49296;48.188;11.566;2023-06-14T07:28:16;18.98;48.30
63202;DHT22;49296;48.188;11.566;2023-06-14T07:30:42;18.99;47.96
63202;DHT22;49296;48.188;11.566;2023-06-14T07:33:09;19.06;47.89
63202;DHT22;49296;48.188;11.566;2023-06-14T07:35:37;19.18;47.68
63202;DHT22;49296;48.188;11.566;2023-06-14T07:38:04;19.04;48.28
63202;DHT22;49296;48.188;11.566;2023-06-14T07:40:30;19.18;47.89
63202;DHT22;49296;48.188;11.566;2023-06-14T07:42:58;19.27;47.48
63202;DHT22;49296;48.188;11.566;2023-06-14T07:45:26;19.30;46.93
63202;DHT22;49296;48.188;11.566;2023-06-14T07:47:53;19.37;47.23
63202;DHT22;49296;48.188;11.566;2023-06-14T07:50:20;19.27;47.35
63202;DHT22;49296;48.188;11.566;2023-06-14T07:52:47;19.36;47.24
63202;DHT22;49296;48.188;11.566;2023-06-14T07:55:14;19.29;46.38
63202;DHT22;49296;48.188;11.566;2023-06-14T07:57:41;19.29;45.90
63202;DHT22;49296;48.188;11.566;2023-06-14T08:00:12;19.30;45.89
63202;DHT22;49296;48.188;11.566;2023-06-14T08:02:40;19.45;45.53
63202;DHT22;49296;48.188;11.566;2023-06-14T08:05:09;19.47;45.49
63202;DHT22;49296;48.188;11.566;2023-06-14T08:07:35;19.53;45.47
63202;DHT22;49296;48.188;11.566;2023-06-14T08:10:02;19.66;45.57
63202;DHT22;49296;48.188;11.566;2023-06-14T08:12:29;19.78;45.36
63202;DHT22;49296;48.188;11.566;2023-06-14T08:14:56;19.67;45.52
63202;DHT22;49296;48.188;11.566;2023-06-14T08:17:24;19.70;45.79
63202;DHT22;49296;48.188;11.566;2023-06-14T08:19:51;19.75;45.82
63202;DHT22;49296;48.188;11.566;2023-06-14T08:22:20;19.78;45.24
63202;DHT22;49296;48.188;11.566;2023-06-14T08:24:48;19.92;45.47
63202;DHT22;49296;48.188;11.566;2023-06-14T08:27:14;20.06;44.65
63202;DHT22;49296;48.188;11.566;2023-06-14T08:29:41;20.16;45.08
63202;DHT22;49296;48.188;11.566;2023-06-14T08:32:08;20.22;44.72
63202;DHT22;49296;48.188;11.566;2023-06-14T08:34:37;20.29;44.77
63202;DHT22;49296;48.188;11.566;2023-06-14T08:37:04;20.33;44.28
63202;DHT22;49296;48.188;11.566;2023-06-14T08:39:31;20.28;44.09
63202;DHT22;49296;48.188;11.566;2023-06-14T08:42:01;20.32;43.86
63202;DHT22;49296;48.188;11.566;2023-06-14T08:44:27;20.41;43.38
63202;DHT22;49296;48.188;11.566;2023-06-14T08:46:56;20.53;43.52
63202;DHT22;49296;48.188;11.566;2023-06-14T08:49:25;20.61;43.06
63202;DHT22;49296;48.188;11.566;2023-06-14T08:51:57;20.61;43.85
63202;DHT22;49296;48.188;11.566;2023-06-14T08:54:25;20.70;41.77
63202;DHT22;49296;48.188;11.566;2023-06-14T08:56:53;20.80;43.40
63202;DHT22;49296;48.188;11.566;2023-06-14T08:59:26;20.85;43.28
63202;DHT22;49296;48.188;11.566;2023-06-14T09:01:53;20.84;41.59
63202;DHT22;49296;48.188;11.566;2023-06-14T09:04:20;20.84;42.63
63202;DHT22;49296;48.188;11.566;2023-06-14T09:06:48;20.87;43.25
63202;DHT22;49296;48.188;11.566;2023-06-14T09:09:19;20.85;42.68
63202;DHT22;49296;48.188;11.566;2023-06-14T09:11:46;20.95;42.73
63202;DHT22;49296;48.188;11.566;2023-06-14T09:14:13;21.02;42.97
63202;DHT22;49296;48.188;11.566;2023-06-14T09:16:40;20.99;41.99
63202;DHT22;49296;48.188;11.566;2023-06-14T09:19:07;21.20;41.79
63202;DHT22;49296;48.188;11.566;2023-06-14T09:21:34;21.34;40.07
63202;DHT22;49296;48.188;11.566;2023-06-14T09:24:03;21.25;39.16
63202;DHT22;49296;48.188;11.566;2023-06-14T09:26:31;21.44;39.43
63202;DHT22;49296;48.188;11.566;2023-06-14T09:28:58;21.62;38.74
63202;DHT22;49296;48.188;11.566;2023-06-14T09:31:25;21.78;39.46
63202;DHT22;49296;48.188;11.566;2023-06-14T09:33:57;21.87;39.57
63202;DHT22;49296;48.188;11.566;2023-06-14T09:36:25;21.75;39.48
63202;DHT22;49296;48.188;11.566;2023-06-14T09:38:52;21.81;39.61
63202;DHT22;49296;48.188;11.566;2023-06-14T09:41:19;21.92;37.73
63202;DHT22;49296;48.188;11.566;2023-06-14T09:43:48;21.94;38.60
63202;DHT22;49296;48.188;11.566;2023-06-14T09:46:18;22.01;39.24
63202;DHT22;49296;48.188;11.566;2023-06-14T09:48:45;21.88;38.66
63202;DHT22;49296;48.188;11.566;2023-06-14T09:51:13;21.87;40.03
63202;DHT22;49296;48.188;11.566;2023-06-14T09:53:42;21.96;39.39
63202;DHT22;49296;48.188;11.566;2023-06-14T09:56:10;22.08;39.82
63202;DHT22;49296;48.188;11.566;2023-06-14T09:58:39;22.09;40.24
63202;DHT22;49296;48.188;11.566;2023-06-14T10:01:08;22.04;40.05
63202;DHT22;49296;48.188;11.566;2023-06-14T10:03:39;22.15;39.93
63202;DHT22;49296;48.188;11.566;2023-06-14T10:06:08;22.09;38.76
63202;DHT22;49296;48.188;11.566;2023-06-14T10:08:36;22.13;39.51
63202;DHT22;49296;48.188;11.566;2023-06-14T10:11:03;22.01;39.91
63202;DHT22;49296;48.188;11.566;2023-06-14T10:13:32;22.08;39.97
63202;DHT22;49296;48.188;11.566;2023-06-14T10:16:06;22.19;40.11
63202;DHT22;49296;48.188;11.566;2023-06-14T10:18:42;21.96;38.99
63202;DHT22;49296;48.188;11.566;2023-06-14T10:21:15;21.98;39.43
63202;DHT22;49296;48.188;11.566;2023-06-14T10:23:44;21.95;39.23
63202;DHT22;49296;48.188;11.566;2023-06-14T10:26:18;22.04;38.77
63202;DHT22;49296;48.188;11.566;2023-06-14T10:28:56;22.20;39.56
63202;DHT22;49296;48.188;11.566;2023-06-14T10:31:39;22.41;39.34
63202;DHT22;49296;48.188;11.566;2023-06-14T10:34:08;22.54;38.77
63202;DHT22;49296;48.188;11.566;2023-06-14T10:36:34;22.57;40.46
63202;DHT22;49296;48.188;11.566;2023-06-14T10:39:05;22.71;38.53
63202;DHT22;49296;48.188;11.566;2023-06-14T10:41:35;22.81;38.17
63202;DHT22;49296;48.188;11.566;2023-06-14T10:44:37;22.71;38.66
63202;DHT22;49296;48.188;11.566;2023-06-14T10:47:07;22.76;38.61
63202;DHT22;49296;48.188;11.566;2023-06-14T10:49:41;22.74;38.34
63202;DHT22;49296;48.188;11.566;2023-06-14T10:52:09;22.71;37.11
63202;DHT22;49296;48.188;11.566;2023-06-14T10:55:15;22.61;36.50
63202;DHT22;49296;48.188;11.566;2023-06-14T10:57:45;22.64;36.70
63202;DHT22;49296;48.188;11.566;2023-06-14T11:00:14;22.63;36.86
63202;DHT22;49296;48.188;11.566;2023-06-14T11:05:54;22.68;36.51
63202;DHT22;49296;48.188;11.566;2023-06-14T11:11:45;22.79;36.35
63202;DHT22;49296;48.188;11.566;2023-06-14T11:14:12;22.78;35.90
63202;DHT22;49296;48.188;11.566;2023-06-14T11:16:39;22.69;35.41
63202;DHT22;49296;48.188;11.566;2023-06-14T11:19:06;22.82;36.15
63202;DHT22;49296;48.188;11.566;2023-06-14T11:21:34;22.88;37.27
63202;DHT22;49296;48.188;11.566;2023-06-14T11:24:10;22.98;35.31
63202;DHT22;49296;48.188;11.566;2023-06-14T11:26:37;23.06;36.09
63202;DHT22;49296;48.188;11.566;2023-06-14T11:29:04;23.16;36.58
63202;DHT22;49296;48.188;11.566;2023-06-14T11:31:31;23.27;35.24
63202;DHT22;49296;48.188;11.566;2023-06-14T11:34:00;23.44;35.58
63202;DHT22;49296;48.188;11.566;2023-06-14T11:36:28;23.44;36.03
63202;DHT22;49296;48.188;11.566;2023-06-14T11:39:06;23.49;36.03
63202;DHT22;49296;48.188;11.566;2023-06-14T11:41:37;23.61;35.83
63202;DHT22;49296;48.188;11.566;2023-06-14T11:44:05;23.53;35.08
63202;DHT22;49296;48.188;11.566;2023-06-14T11:46:33;23.67;36.14
63202;DHT22;49296;48.188;11.566;2023-06-14T11:49:00;23.84;36.08
63202;DHT22;49296;48.188;11.566;2023-06-14T11:51:30;24.02;35.71
63202;DHT22;49296;48.188;11.566;2023-06-14T11:53:57;23.99;34.94
63202;DHT22;49296;48.188;11.566;2023-06-14T11:56:25;23.98;34.73
63202;DHT22;49296;48.188;11.566;2023-06-14T11:58:52;24.13;34.19
63202;DHT22;49296;48.188;11.566;2023-06-14T12:01:22;24.40;33.26
63202;DHT22;49296;48.188;11.566;2023-06-14T12:03:49;24.46;33.59
63202;DHT22;49296;48.188;11.566;2023-06-14T12:06:25;24.69;33.29
63202;DHT22;49296;48.188;11.566;2023-06-14T12:08:55;24.89;33.55
63202;DHT22;49296;48.188;11.566;2023-06-14T12:11:23;25.03;33.66
63202;DHT22;49296;48.188;11.566;2023-06-14T12:13:51;25.16;33.15
63202;DHT22;49296;48.188;11.566;2023-06-14T12:16:17;25.13;32.43
63202;DHT22;49296;48.188;11.566;2023-06-14T12:18:44;25.37;32.41
63202;DHT22;49296;48.188;11.566;2023-06-14T12:21:11;25.51;33.26
63202;DHT22;49296;48.188;11.566;2023-06-14T12:23:45;25.38;33.51
63202;DHT22;49296;48.188;11.566;2023-06-14T12:26:14;25.27;31.85
63202;DHT22;49296;48.188;11.566;2023-06-14T12:28:41;25.08;32.88
63202;DHT22;49296;48.188;11.566;2023-06-14T12:31:11;24.92;33.35
63202;DHT22;49296;48.188;11.566;2023-06-14T12:33:38;24.77;33.20
63202;DHT22;49296;48.188;11.566;2023-06-14T12:36:06;24.43;33.36
63202;DHT22;49296;48.188;11.566;2023-06-14T12:38:33;24.41;33.26
63202;DHT22;49296;48.188;11.566;2023-06-14T12:41:00;24.53;34.57
63202;DHT22;49296;48.188;11.566;2023-06-14T12:43:26;25.15;33.29
63202;DHT22;49296;48.188;11.566;2023-06-14T12:45:53;25.48;33.29
63202;DHT22;49296;48.188;11.566;2023-06-14T12:48:21;25.46;32.13
63202;DHT22;49296;48.188;11.566;2023-06-14T12:50:48;25.01;32.99
63202;DHT22;49296;48.188;11.566;2023-06-14T12:53:15;24.84;32.40
63202;DHT22;49296;48.188;11.566;2023-06-14T12:55:42;24.61;33.48
63202;DHT22;49296;48.188;11.566;2023-06-14T12:58:09;24.63;33.53
63202;DHT22;49296;48.188;11.566;2023-06-14T13:00:37;24.67;32.94
63202;DHT22;49296;48.188;11.566;2023-06-14T13:03:04;24.74;33.66
63202;DHT22;49296;48.188;11.566;2023-06-14T13:05:32;24.54;32.57
63202;DHT22;49296;48.188;11.566;2023-06-14T13:08:00;24.49;32.72
63202;DHT22;49296;48.188;11.566;2023-06-14T13:10:27;24.27;33.23
63202;DHT22;49296;48.188;11.566;2023-06-14T13:12:53;24.69;32.76
63202;DHT22;49296;48.188;11.566;2023-06-14T13:15:20;25.26;31.89
63202;DHT22;49296;48.188;11.566;2023-06-14T13:17:47;25.38;31.97
63202;DHT22;49296;48.188;11.566;2023-06-14T13:20:14;25.47;31.13
63202;DHT22;49296;48.188;11.566;2023-06-14T13:22:43;25.43;31.67
63202;DHT22;49296;48.188;11.566;2023-06-14T13:25:09;25.38;30.15
63202;DHT22;49296;48.188;11.566;2023-06-14T13:27:36;25.26;31.00
63202;DHT22;49296;48.188;11.566;2023-06-14T13:30:03;25.08;31.94
63202;DHT22;49296;48.188;11.566;2023-06-14T13:32:31;24.56;33.30
63202;DHT22;49296;48.188;11.566;2023-06-14T13:34:58;24.60;33.65
63202;DHT22;49296;48.188;11.566;2023-06-14T13:37:25;24.46;33.30
63202;DHT22;49296;48.188;11.566;2023-06-14T13:39:53;24.68;32.74
63202;DHT22;49296;48.188;11.566;2023-06-14T13:42:20;25.60;32.53
63202;DHT22;49296;48.188;11.566;2023-06-14T13:44:47;26.19;31.17
63202;DHT22;49296;48.188;11.566;2023-06-14T13:47:14;26.72;30.08
63202;DHT22;49296;48.188;11.566;2023-06-14T13:49:41;26.74;28.90
63202;DHT22;49296;48.188;11.566;2023-06-14T13:52:07;27.05;28.26
63202;DHT22;49296;48.188;11.566;2023-06-14T13:54:34;27.44;28.61
63202;DHT22;49296;48.188;11.566;2023-06-14T13:57:02;27.85;28.09
63202;DHT22;49296;48.188;11.566;2023-06-14T13:59:29;28.21;27.93
63202;DHT22;49296;48.188;11.566;2023-06-14T14:01:56;28.69;27.49
63202;DHT22;49296;48.188;11.566;2023-06-14T14:04:23;29.20;26.49
63202;DHT22;49296;48.188;11.566;2023-06-14T14:06:49;29.33;26.66
63202;DHT22;49296;48.188;11.566;2023-06-14T14:09:16;29.55;26.36
63202;DHT22;49296;48.188;11.566;2023-06-14T14:11:43;29.98;26.56
63202;DHT22;49296;48.188;11.566;2023-06-14T14:14:12;29.96;26.74
63202;DHT22;49296;48.188;11.566;2023-06-14T14:16:38;29.51;27.29
63202;DHT22;49296;48.188;11.566;2023-06-14T14:19:05;29.68;26.26
63202;DHT22;49296;48.188;11.566;2023-06-14T14:21:32;30.17;25.95
63202;DHT22;49296;48.188;11.566;2023-06-14T14:23:59;30.76;25.32
63202;DHT22;49296;48.188;11.566;2023-06-14T14:26:26;30.53;25.56
63202;DHT22;49296;48.188;11.566;2023-06-14T14:28:53;30.82;25.29
63202;DHT22;49296;48.188;11.566;2023-06-14T14:31:21;30.76;24.78
63202;DHT22;49296;48.188;11.566;2023-06-14T14:33:48;31.30;24.41
63202;DHT22;49296;48.188;11.566;2023-06-14T14:36:15;31.15;24.38
63202;DHT22;49296;48.188;11.566;2023-06-14T14:38:41;31.37;24.77
63202;DHT22;49296;48.188;11.566;2023-06-14T14:41:08;31.93;24.72
63202;DHT22;49296;48.188;11.566;2023-06-14T14:43:35;32.29;23.99
63202;DHT22;49296;48.188;11.566;2023-06-14T14:46:02;32.13;24.44
63202;DHT22;49296;48.188;11.566;2023-06-14T14:48:30;32.01;24.82
63202;DHT22;49296;48.188;11.566;2023-06-14T14:50:56;31.15;25.26
63202;DHT22;49296;48.188;11.566;2023-06-14T14:53:23;29.93;26.23
63202;DHT22;49296;48.188;11.566;2023-06-14T14:55:50;29.34;26.94
63202;DHT22;49296;48.188;11.566;2023-06-14T14:58:16;29.17;27.15
63202;DHT22;49296;48.188;11.566;2023-06-14T15:00:44;29.37;27.07
63202;DHT22;49296;48.188;11.566;2023-06-14T15:03:11;28.44;27.55
63202;DHT22;49296;48.188;11.566;2023-06-14T15:05:39;28.95;26.76
63202;DHT22;49296;48.188;11.566;2023-06-14T15:08:05;28.44;27.43
63202;DHT22;49296;48.188;11.566;2023-06-14T15:10:37;28.13;27.84
63202;DHT22;49296;48.188;11.566;2023-06-14T15:13:05;27.53;28.85
63202;DHT22;49296;48.188;11.566;2023-06-14T15:15:33;27.43;29.01
63202;DHT22;49296;48.188;11.566;2023-06-14T15:17:59;27.16;29.16
63202;DHT22;49296;48.188;11.566;2023-06-14T15:20:26;27.65;28.37
63202;DHT22;49296;48.188;11.566;2023-06-14T15:22:55;28.47;28.15
63202;DHT22;49296;48.188;11.566;2023-06-14T15:25:25;29.35;26.95